sensor_id;sensor_type;location;lat;lon;timestamp;P1;durP1;ratioP1;P2;durP2;ratioP2
51664;SDS011;37751;52.408;12.536;2022-07-29T00:02:27;6.55;;;1.77;;
51664;SDS011;37751;52.408;12.536;2022-07-29T00:04:54;8.80;;;2.20;;
51664;SDS011;37751;52.408;12.536;2022-07-29T00:07:21;11.70;;;1.80;;
51664;SDS011;37751;52.408;12.536;2022-07-29T00:09:47;5.70;;;2.05;;
51664;SDS011;37751;52.408;12.536;2022-07-29T00:12:17;10.25;;;1.60;;
51664;SDS011;37751;52.408;12.536;2022-07-29T00:14:52;3.85;;;2.08;;
51664;SDS011;37751;52.408;12.536;2022-07-29T00:17:21;7.18;;;1.73;;
51664;SDS011;37751;52.408;12.536;2022-07-29T00:19:51;7.22;;;1.65;;
51664;SDS011;37751;52.408;12.536;2022-07-29T00:22:18;7.07;;;1.73;;
51664;SDS011;37751;52.408;12.536;2022-07-29T00:24:49;3.20;;;1.70;;
51664;SDS011;37751;52.408;12.536;2022-07-29T00:27:16;6.60;;;2.03;;
51664;SDS011;37751;52.408;12.536;2022-07-29T00:29:43;6.30;;;1.88;;
51664;SDS011;37751;52.408;12.536;2022-07-29T00:32:10;6.50;;;1.95;;
51664;SDS011;37751;52.408;12.536;2022-07-29T00:34:37;8.57;;;2.40;;
51664;SDS011;37751;52.408;12.536;2022-07-29T00:37:23;5.65;;;2.25;;
51664;SDS011;37751;52.408;12.536;2022-07-29T00:39:50;16.42;;;2.17;;
51664;SDS011;37751;52.408;12.536;2022-07-29T00:42:17;12.18;;;2.50;;
51664;SDS011;37751;52.408;12.536;2022-07-29T00:44:43;6.60;;;2.85;;
51664;SDS011;37751;52.408;12.536;2022-07-29T00:47:11;6.95;;;2.28;;
51664;SDS011;37751;52.408;12.536;2022-07-29T00:49:38;7.78;;;2.55;;
51664;SDS011;37751;52.408;12.536;2022-07-29T00:52:07;9.32;;;2.55;;
51664;SDS011;37751;52.408;12.536;2022-07-29T00:54:36;7.47;;;2.33;;
51664;SDS011;37751;52.408;12.536;2022-07-29T00:57:10;6.38;;;2.40;;
51664;SDS011;37751;52.408;12.536;2022-07-29T00:59:38;11.25;;;2.85;;
51664;SDS011;37751;52.408;12.536;2022-07-29T01:02:05;11.77;;;2.50;;
51664;SDS011;37751;52.408;12.536;2022-07-29T01:04:32;10.27;;;2.25;;
51664;SDS011;37751;52.408;12.536;2022-07-29T01:07:00;9.27;;;2.80;;
51664;SDS011;37751;52.408;12.536;2022-07-29T01:09:29;4.18;;;2.53;;
51664;SDS011;37751;52.408;12.536;2022-07-29T01:12:18;6.22;;;2.75;;
51664;SDS011;37751;52.408;12.536;2022-07-29T01:14:50;9.80;;;3.22;;
51664;SDS011;37751;52.408;12.536;2022-07-29T01:37:26;9.00;;;3.08;;
51664;SDS011;37751;52.408;12.536;2022-07-29T01:40:03;11.13;;;3.55;;
51664;SDS011;37751;52.408;12.536;2022-07-29T01:50:33;8.82;;;3.75;;
51664;SDS011;37751;52.408;12.536;2022-07-29T01:53:07;6.28;;;3.00;;
51664;SDS011;37751;52.408;12.536;2022-07-29T01:55:38;7.88;;;3.15;;
51664;SDS011;37751;52.408;12.536;2022-07-29T01:58:10;10.77;;;3.13;;
51664;SDS011;37751;52.408;12.536;2022-07-29T02:00:39;6.00;;;3.17;;
51664;SDS011;37751;52.408;12.536;2022-07-29T02:03:09;7.38;;;3.90;;
51664;SDS011;37751;52.408;12.536;2022-07-29T02:05:40;6.60;;;3.33;;
51664;SDS011;37751;52.408;12.536;2022-07-29T02:08:10;7.20;;;3.67;;
51664;SDS011;37751;52.408;12.536;2022-07-29T02:10:39;10.95;;;3.40;;
51664;SDS011;37751;52.408;12.536;2022-07-29T02:13:08;7.93;;;3.15;;
51664;SDS011;37751;52.408;12.536;2022-07-29T02:15:37;9.85;;;3.38;;
51664;SDS011;37751;52.408;12.536;2022-07-29T02:18:09;13.85;;;3.97;;
51664;SDS011;37751;52.408;12.536;2022-07-29T02:20:44;10.27;;;4.10;;
51664;SDS011;37751;52.408;12.536;2022-07-29T02:23:16;13.10;;;3.00;;
51664;SDS011;37751;52.408;12.536;2022-07-29T02:25:53;9.98;;;3.85;;
51664;SDS011;37751;52.408;12.536;2022-07-29T02:28:23;8.68;;;3.38;;
51664;SDS011;37751;52.408;12.536;2022-07-29T02:30:54;14.30;;;3.78;;
51664;SDS011;37751;52.408;12.536;2022-07-29T02:33:25;9.88;;;3.85;;
51664;SDS011;37751;52.408;12.536;2022-07-29T02:35:53;10.13;;;3.65;;
51664;SDS011;37751;52.408;12.536;2022-07-29T02:38:22;11.77;;;3.60;;
51664;SDS011;37751;52.408;12.536;2022-07-29T02:41:11;9.45;;;3.65;;
51664;SDS011;37751;52.408;12.536;2022-07-29T02:43:41;7.00;;;3.92;;
51664;SDS011;37751;52.408;12.536;2022-07-29T02:46:14;8.23;;;3.60;;
51664;SDS011;37751;52.408;12.536;2022-07-29T02:49:41;8.35;;;3.97;;
51664;SDS011;37751;52.408;12.536;2022-07-29T02:52:02;12.23;;;3.78;;
51664;SDS011;37751;52.408;12.536;2022-07-29T02:54:39;10.35;;;3.60;;
51664;SDS011;37751;52.408;12.536;2022-07-29T02:57:29;6.85;;;3.65;;
51664;SDS011;37751;52.408;12.536;2022-07-29T03:00:21;12.88;;;3.72;;
51664;SDS011;37751;52.408;12.536;2022-07-29T03:02:53;7.22;;;3.30;;
51664;SDS011;37751;52.408;12.536;2022-07-29T03:05:24;13.50;;;4.07;;
51664;SDS011;37751;52.408;12.536;2022-07-29T03:07:56;11.10;;;3.30;;
51664;SDS011;37751;52.408;12.536;2022-07-29T03:10:27;10.25;;;3.30;;
51664;SDS011;37751;52.408;12.536;2022-07-29T03:12:55;11.27;;;3.85;;
51664;SDS011;37751;52.408;12.536;2022-07-29T03:15:24;5.68;;;3.55;;
51664;SDS011;37751;52.408;12.536;2022-07-29T03:17:52;11.45;;;3.00;;
51664;SDS011;37751;52.408;12.536;2022-07-29T03:20:19;7.80;;;3.20;;
51664;SDS011;37751;52.408;12.536;2022-07-29T03:22:46;7.43;;;3.30;;
51664;SDS011;37751;52.408;12.536;2022-07-29T03:25:14;10.82;;;3.55;;
51664;SDS011;37751;52.408;12.536;2022-07-29T03:27:42;4.88;;;3.63;;
51664;SDS011;37751;52.408;12.536;2022-07-29T03:30:10;10.45;;;3.10;;
51664;SDS011;37751;52.408;12.536;2022-07-29T03:32:47;9.50;;;3.45;;
51664;SDS011;37751;52.408;12.536;2022-07-29T03:35:17;14.18;;;3.92;;
51664;SDS011;37751;52.408;12.536;2022-07-29T03:37:45;8.23;;;3.08;;
51664;SDS011;37751;52.408;12.536;2022-07-29T03:40:14;11.25;;;2.97;;
51664;SDS011;37751;52.408;12.536;2022-07-29T03:42:48;5.20;;;2.90;;
51664;SDS011;37751;52.408;12.536;2022-07-29T03:45:17;10.60;;;3.05;;
51664;SDS011;37751;52.408;12.536;2022-07-29T03:47:50;11.13;;;3.40;;
51664;SDS011;37751;52.408;12.536;2022-07-29T03:50:26;6.45;;;3.10;;
51664;SDS011;37751;52.408;12.536;2022-07-29T03:52:56;8.60;;;3.22;;
51664;SDS011;37751;52.408;12.536;2022-07-29T03:55:24;7.53;;;3.00;;
51664;SDS011;37751;52.408;12.536;2022-07-29T03:57:52;8.93;;;3.45;;
51664;SDS011;37751;52.408;12.536;2022-07-29T04:00:21;12.00;;;3.35;;
51664;SDS011;37751;52.408;12.536;2022-07-29T04:02:51;6.25;;;3.70;;
51664;SDS011;37751;52.408;12.536;2022-07-29T04:05:18;5.28;;;2.50;;
51664;SDS011;37751;52.408;12.536;2022-07-29T04:07:45;5.88;;;2.85;;
51664;SDS011;37751;52.408;12.536;2022-07-29T04:10:14;8.75;;;2.78;;
51664;SDS011;37751;52.408;12.536;2022-07-29T04:12:55;10.15;;;3.30;;
51664;SDS011;37751;52.408;12.536;2022-07-29T04:15:22;5.50;;;3.08;;
51664;SDS011;37751;52.408;12.536;2022-07-29T04:17:49;8.95;;;3.13;;
51664;SDS011;37751;52.408;12.536;2022-07-29T04:20:16;6.10;;;2.88;;
51664;SDS011;37751;52.408;12.536;2022-07-29T04:22:43;9.27;;;3.40;;
51664;SDS011;37751;52.408;12.536;2022-07-29T04:25:10;8.45;;;3.35;;
51664;SDS011;37751;52.408;12.536;2022-07-29T04:27:36;8.80;;;2.70;;
51664;SDS011;37751;52.408;12.536;2022-07-29T04:30:23;16.63;;;3.20;;
51664;SDS011;37751;52.408;12.536;2022-07-29T04:32:50;6.75;;;2.80;;
51664;SDS011;37751;52.408;12.536;2022-07-29T04:35:17;13.82;;;3.33;;
51664;SDS011;37751;52.408;12.536;2022-07-29T04:37:48;12.25;;;3.42;;
51664;SDS011;37751;52.408;12.536;2022-07-29T04:40:15;6.97;;;2.90;;
51664;SDS011;37751;52.408;12.536;2022-07-29T04:42:41;10.52;;;2.90;;
51664;SDS011;37751;52.408;12.536;2022-07-29T04:45:12;9.48;;;3.53;;
51664;SDS011;37751;52.408;12.536;2022-07-29T04:47:41;6.47;;;3.28;;
51664;SDS011;37751;52.408;12.536;2022-07-29T04:50:08;9.88;;;3.72;;
51664;SDS011;37751;52.408;12.536;2022-07-29T04:52:36;7.55;;;3.63;;
51664;SDS011;37751;52.408;12.536;2022-07-29T04:55:04;18.45;;;3.90;;
51664;SDS011;37751;52.408;12.536;2022-07-29T04:57:31;8.75;;;3.33;;
51664;SDS011;37751;52.408;12.536;2022-07-29T04:59:58;14.15;;;4.00;;
51664;SDS011;37751;52.408;12.536;2022-07-29T05:02:25;7.57;;;3.63;;
51664;SDS011;37751;52.408;12.536;2022-07-29T05:04:52;10.25;;;3.97;;
51664;SDS011;37751;52.408;12.536;2022-07-29T05:07:19;8.02;;;3.08;;
51664;SDS011;37751;52.408;12.536;2022-07-29T05:09:46;9.15;;;3.53;;
51664;SDS011;37751;52.408;12.536;2022-07-29T05:12:13;8.57;;;3.20;;
51664;SDS011;37751;52.408;12.536;2022-07-29T05:14:40;9.60;;;3.50;;
51664;SDS011;37751;52.408;12.536;2022-07-29T05:17:06;6.63;;;2.88;;
51664;SDS011;37751;52.408;12.536;2022-07-29T05:19:33;7.55;;;3.05;;
51664;SDS011;37751;52.408;12.536;2022-07-29T05:22:05;9.68;;;3.53;;
51664;SDS011;37751;52.408;12.536;2022-07-29T05:24:32;7.10;;;3.10;;
51664;SDS011;37751;52.408;12.536;2022-07-29T05:26:58;7.60;;;3.40;;
51664;SDS011;37751;52.408;12.536;2022-07-29T05:29:25;16.42;;;3.42;;
51664;SDS011;37751;52.408;12.536;2022-07-29T05:32:10;8.43;;;3.35;;
51664;SDS011;37751;52.408;12.536;2022-07-29T05:34:38;8.82;;;3.38;;
51664;SDS011;37751;52.408;12.536;2022-07-29T05:37:15;13.55;;;3.90;;
51664;SDS011;37751;52.408;12.536;2022-07-29T05:39:42;18.55;;;4.03;;
51664;SDS011;37751;52.408;12.536;2022-07-29T05:42:14;12.93;;;3.10;;
51664;SDS011;37751;52.408;12.536;2022-07-29T05:44:41;13.32;;;3.50;;
51664;SDS011;37751;52.408;12.536;2022-07-29T05:47:07;6.05;;;3.35;;
51664;SDS011;37751;52.408;12.536;2022-07-29T05:49:34;13.95;;;3.47;;
51664;SDS011;37751;52.408;12.536;2022-07-29T05:52:01;6.10;;;2.85;;
51664;SDS011;37751;52.408;12.536;2022-07-29T05:54:28;9.77;;;3.30;;
51664;SDS011;37751;52.408;12.536;2022-07-29T05:56:55;11.70;;;3.72;;
51664;SDS011;37751;52.408;12.536;2022-07-29T05:59:22;8.48;;;3.00;;
51664;SDS011;37751;52.408;12.536;2022-07-29T06:01:55;7.55;;;3.22;;
51664;SDS011;37751;52.408;12.536;2022-07-29T06:04:23;7.00;;;2.80;;
51664;SDS011;37751;52.408;12.536;2022-07-29T06:06:50;3.90;;;2.70;;
51664;SDS011;37751;52.408;12.536;2022-07-29T06:09:16;10.98;;;3.22;;
51664;SDS011;37751;52.408;12.536;2022-07-29T06:11:43;5.97;;;3.13;;
51664;SDS011;37751;52.408;12.536;2022-07-29T06:14:10;10.25;;;2.75;;
51664;SDS011;37751;52.408;12.536;2022-07-29T06:16:37;9.38;;;3.25;;
51664;SDS011;37751;52.408;12.536;2022-07-29T06:19:04;7.35;;;2.85;;
51664;SDS011;37751;52.408;12.536;2022-07-29T06:21:31;8.00;;;2.70;;
51664;SDS011;37751;52.408;12.536;2022-07-29T06:23:57;12.07;;;3.03;;
51664;SDS011;37751;52.408;12.536;2022-07-29T06:26:26;11.63;;;3.17;;
51664;SDS011;37751;52.408;12.536;2022-07-29T06:28:57;14.25;;;3.20;;
51664;SDS011;37751;52.408;12.536;2022-07-29T06:31:23;36.78;;;5.75;;
51664;SDS011;37751;52.408;12.536;2022-07-29T06:33:50;13.82;;;3.80;;
51664;SDS011;37751;52.408;12.536;2022-07-29T06:36:19;13.45;;;3.20;;
51664;SDS011;37751;52.408;12.536;2022-07-29T06:38:50;8.93;;;3.03;;
51664;SDS011;37751;52.408;12.536;2022-07-29T06:41:18;10.48;;;2.95;;
51664;SDS011;37751;52.408;12.536;2022-07-29T06:43:45;14.55;;;3.42;;
51664;SDS011;37751;52.408;12.536;2022-07-29T06:46:21;6.38;;;2.53;;
51664;SDS011;37751;52.408;12.536;2022-07-29T06:48:49;8.98;;;3.10;;
51664;SDS011;37751;52.408;12.536;2022-07-29T06:51:18;9.75;;;2.95;;
51664;SDS011;37751;52.408;12.536;2022-07-29T06:53:48;12.52;;;2.78;;
51664;SDS011;37751;52.408;12.536;2022-07-29T06:56:32;8.50;;;2.33;;
51664;SDS011;37751;52.408;12.536;2022-07-29T06:59:05;5.78;;;2.30;;
51664;SDS011;37751;52.408;12.536;2022-07-29T07:01:34;10.23;;;2.90;;
51664;SDS011;37751;52.408;12.536;2022-07-29T07:04:03;9.00;;;2.45;;
51664;SDS011;37751;52.408;12.536;2022-07-29T07:06:30;6.57;;;2.47;;
51664;SDS011;37751;52.408;12.536;2022-07-29T07:08:56;12.07;;;2.50;;
51664;SDS011;37751;52.408;12.536;2022-07-29T07:11:23;9.45;;;2.65;;
51664;SDS011;37751;52.408;12.536;2022-07-29T07:13:50;12.88;;;2.67;;
51664;SDS011;37751;52.408;12.536;2022-07-29T07:16:17;7.65;;;2.90;;
51664;SDS011;37751;52.408;12.536;2022-07-29T07:18:44;13.05;;;3.05;;
51664;SDS011;37751;52.408;12.536;2022-07-29T07:21:11;5.88;;;2.50;;
51664;SDS011;37751;52.408;12.536;2022-07-29T07:23:44;7.50;;;2.70;;
51664;SDS011;37751;52.408;12.536;2022-07-29T07:26:12;9.45;;;2.65;;
51664;SDS011;37751;52.408;12.536;2022-07-29T07:28:39;6.95;;;2.72;;
51664;SDS011;37751;52.408;12.536;2022-07-29T07:31:05;6.53;;;2.13;;
51664;SDS011;37751;52.408;12.536;2022-07-29T07:33:32;13.55;;;2.97;;
51664;SDS011;37751;52.408;12.536;2022-07-29T07:35:59;7.75;;;2.38;;
51664;SDS011;37751;52.408;12.536;2022-07-29T07:38:26;6.25;;;2.83;;
51664;SDS011;37751;52.408;12.536;2022-07-29T07:40:52;5.25;;;2.20;;
51664;SDS011;37751;52.408;12.536;2022-07-29T07:43:19;6.45;;;2.40;;
51664;SDS011;37751;52.408;12.536;2022-07-29T07:45:46;6.70;;;2.50;;
51664;SDS011;37751;52.408;12.536;2022-07-29T07:48:13;9.85;;;2.78;;
51664;SDS011;37751;52.408;12.536;2022-07-29T07:50:40;9.82;;;2.85;;
51664;SDS011;37751;52.408;12.536;2022-07-29T07:53:07;10.48;;;3.08;;
51664;SDS011;37751;52.408;12.536;2022-07-29T07:55:33;7.40;;;2.88;;
51664;SDS011;37751;52.408;12.536;2022-07-29T07:58:27;7.85;;;3.05;;
51664;SDS011;37751;52.408;12.536;2022-07-29T08:00:54;7.88;;;2.25;;
51664;SDS011;37751;52.408;12.536;2022-07-29T08:03:21;14.07;;;2.60;;
51664;SDS011;37751;52.408;12.536;2022-07-29T08:05:47;9.02;;;3.25;;
51664;SDS011;37751;52.408;12.536;2022-07-29T08:08:16;11.77;;;3.40;;
51664;SDS011;37751;52.408;12.536;2022-07-29T08:10:44;7.10;;;2.95;;
51664;SDS011;37751;52.408;12.536;2022-07-29T08:13:20;7.88;;;2.65;;
51664;SDS011;37751;52.408;12.536;2022-07-29T08:15:49;9.50;;;2.60;;
51664;SDS011;37751;52.408;12.536;2022-07-29T08:18:38;6.25;;;2.55;;
51664;SDS011;37751;52.408;12.536;2022-07-29T08:21:06;13.10;;;3.40;;
51664;SDS011;37751;52.408;12.536;2022-07-29T08:23:33;9.93;;;2.50;;
51664;SDS011;37751;52.408;12.536;2022-07-29T08:26:21;8.00;;;2.15;;
51664;SDS011;37751;52.408;12.536;2022-07-29T08:28:48;10.00;;;3.17;;
51664;SDS011;37751;52.408;12.536;2022-07-29T08:31:16;5.32;;;2.28;;
51664;SDS011;37751;52.408;12.536;2022-07-29T08:33:44;13.95;;;2.63;;
51664;SDS011;37751;52.408;12.536;2022-07-29T08:36:11;7.80;;;2.40;;
51664;SDS011;37751;52.408;12.536;2022-07-29T08:38:39;9.30;;;2.80;;
51664;SDS011;37751;52.408;12.536;2022-07-29T08:41:05;5.45;;;2.35;;
51664;SDS011;37751;52.408;12.536;2022-07-29T08:43:32;16.27;;;1.90;;
51664;SDS011;37751;52.408;12.536;2022-07-29T08:46:03;6.55;;;1.80;;
51664;SDS011;37751;52.408;12.536;2022-07-29T08:48:30;7.90;;;2.17;;
51664;SDS011;37751;52.408;12.536;2022-07-29T08:50:58;7.38;;;2.10;;
51664;SDS011;37751;52.408;12.536;2022-07-29T08:53:27;11.13;;;2.08;;
51664;SDS011;37751;52.408;12.536;2022-07-29T08:55:55;5.90;;;1.67;;
51664;SDS011;37751;52.408;12.536;2022-07-29T08:58:23;13.93;;;2.10;;
51664;SDS011;37751;52.408;12.536;2022-07-29T09:00:55;19.05;;;2.10;;
51664;SDS011;37751;52.408;12.536;2022-07-29T09:03:23;20.83;;;3.30;;
51664;SDS011;37751;52.408;12.536;2022-07-29T09:05:53;13.13;;;1.70;;
51664;SDS011;37751;52.408;12.536;2022-07-29T09:08:20;12.73;;;2.50;;
51664;SDS011;37751;52.408;12.536;2022-07-29T09:10:47;13.10;;;2.17;;
51664;SDS011;37751;52.408;12.536;2022-07-29T09:13:14;10.75;;;1.77;;
51664;SDS011;37751;52.408;12.536;2022-07-29T09:15:41;9.00;;;1.60;;
51664;SDS011;37751;52.408;12.536;2022-07-29T09:18:08;14.43;;;2.20;;
51664;SDS011;37751;52.408;12.536;2022-07-29T09:20:54;8.23;;;1.80;;
51664;SDS011;37751;52.408;12.536;2022-07-29T09:24:37;14.38;;;1.88;;
51664;SDS011;37751;52.408;12.536;2022-07-29T09:26:42;5.13;;;1.90;;
51664;SDS011;37751;52.408;12.536;2022-07-29T09:29:12;9.55;;;2.00;;
51664;SDS011;37751;52.408;12.536;2022-07-29T09:31:44;10.63;;;1.77;;
51664;SDS011;37751;52.408;12.536;2022-07-29T09:34:24;12.10;;;2.40;;
51664;SDS011;37751;52.408;12.536;2022-07-29T09:36:57;10.93;;;2.30;;
51664;SDS011;37751;52.408;12.536;2022-07-29T09:39:28;6.75;;;1.70;;
51664;SDS011;37751;52.408;12.536;2022-07-29T09:42:11;10.05;;;1.80;;
51664;SDS011;37751;52.408;12.536;2022-07-29T09:44:48;4.90;;;1.63;;
51664;SDS011;37751;52.408;12.536;2022-07-29T09:47:17;5.28;;;1.40;;
51664;SDS011;37751;52.408;12.536;2022-07-29T09:49:51;7.22;;;1.65;;
51664;SDS011;37751;52.408;12.536;2022-07-29T09:52:24;8.52;;;1.90;;
51664;SDS011;37751;52.408;12.536;2022-07-29T09:55:05;4.70;;;2.58;;
51664;SDS011;37751;52.408;12.536;2022-07-29T09:57:34;6.85;;;1.83;;
51664;SDS011;37751;52.408;12.536;2022-07-29T10:00:05;10.30;;;1.83;;
51664;SDS011;37751;52.408;12.536;2022-07-29T10:02:44;7.43;;;2.50;;
51664;SDS011;37751;52.408;12.536;2022-07-29T10:05:16;4.72;;;1.23;;
51664;SDS011;37751;52.408;12.536;2022-07-29T10:07:50;7.85;;;1.50;;
51664;SDS011;37751;52.408;12.536;2022-07-29T10:10:30;10.80;;;1.40;;
51664;SDS011;37751;52.408;12.536;2022-07-29T10:13:03;6.75;;;2.40;;
51664;SDS011;37751;52.408;12.536;2022-07-29T10:15:42;3.83;;;1.60;;
51664;SDS011;37751;52.408;12.536;2022-07-29T10:18:12;15.27;;;1.60;;
51664;SDS011;37751;52.408;12.536;2022-07-29T10:20:40;8.55;;;1.63;;
51664;SDS011;37751;52.408;12.536;2022-07-29T10:23:08;6.15;;;1.65;;
51664;SDS011;37751;52.408;12.536;2022-07-29T10:25:35;11.18;;;1.95;;
51664;SDS011;37751;52.408;12.536;2022-07-29T10:28:03;3.47;;;1.50;;
51664;SDS011;37751;52.408;12.536;2022-07-29T10:30:31;5.30;;;1.58;;
51664;SDS011;37751;52.408;12.536;2022-07-29T10:42:27;8.45;;;2.10;;
51664;SDS011;37751;52.408;12.536;2022-07-29T10:45:00;3.90;;;1.42;;
51664;SDS011;37751;52.408;12.536;2022-07-29T10:47:30;8.43;;;1.85;;
51664;SDS011;37751;52.408;12.536;2022-07-29T10:49:57;7.47;;;1.45;;
51664;SDS011;37751;52.408;12.536;2022-07-29T10:55:33;9.68;;;1.80;;
51664;SDS011;37751;52.408;12.536;2022-07-29T10:58:12;3.40;;;1.70;;
51664;SDS011;37751;52.408;12.536;2022-07-29T11:00:45;13.75;;;2.05;;
51664;SDS011;37751;52.408;12.536;2022-07-29T11:06:22;6.57;;;1.60;;
51664;SDS011;37751;52.408;12.536;2022-07-29T11:15:21;7.53;;;2.00;;
51664;SDS011;37751;52.408;12.536;2022-07-29T11:20:32;4.72;;;1.55;;
51664;SDS011;37751;52.408;12.536;2022-07-29T11:23:25;5.82;;;2.13;;
51664;SDS011;37751;52.408;12.536;2022-07-29T11:29:03;4.38;;;1.45;;
51664;SDS011;37751;52.408;12.536;2022-07-29T11:31:52;9.10;;;2.15;;
51664;SDS011;37751;52.408;12.536;2022-07-29T11:34:23;8.73;;;1.60;;
51664;SDS011;37751;52.408;12.536;2022-07-29T11:39:33;8.07;;;1.67;;
51664;SDS011;37751;52.408;12.536;2022-07-29T11:45:04;5.45;;;1.52;;
51664;SDS011;37751;52.408;12.536;2022-07-29T11:47:52;7.55;;;1.80;;
51664;SDS011;37751;52.408;12.536;2022-07-29T11:50:44;3.45;;;1.70;;
51664;SDS011;37751;52.408;12.536;2022-07-29T11:53:13;8.65;;;2.08;;
51664;SDS011;37751;52.408;12.536;2022-07-29T11:55:41;9.88;;;2.60;;
51664;SDS011;37751;52.408;12.536;2022-07-29T11:58:20;7.05;;;1.98;;
51664;SDS011;37751;52.408;12.536;2022-07-29T12:00:51;8.77;;;2.30;;
51664;SDS011;37751;52.408;12.536;2022-07-29T12:03:24;8.88;;;2.17;;
51664;SDS011;37751;52.408;12.536;2022-07-29T12:06:01;7.82;;;1.67;;
51664;SDS011;37751;52.408;12.536;2022-07-29T12:09:06;7.53;;;1.50;;
51664;SDS011;37751;52.408;12.536;2022-07-29T12:11:39;4.35;;;1.70;;
51664;SDS011;37751;52.408;12.536;2022-07-29T12:14:23;6.10;;;2.10;;
51664;SDS011;37751;52.408;12.536;2022-07-29T12:16:59;8.52;;;1.85;;
51664;SDS011;37751;52.408;12.536;2022-07-29T12:19:26;4.57;;;2.03;;
51664;SDS011;37751;52.408;12.536;2022-07-29T12:21:56;4.22;;;1.90;;
51664;SDS011;37751;52.408;12.536;2022-07-29T12:24:28;6.68;;;1.70;;
51664;SDS011;37751;52.408;12.536;2022-07-29T12:27:10;7.65;;;1.90;;
51664;SDS011;37751;52.408;12.536;2022-07-29T12:29:39;12.25;;;1.83;;
51664;SDS011;37751;52.408;12.536;2022-07-29T12:32:12;4.75;;;1.83;;
51664;SDS011;37751;52.408;12.536;2022-07-29T12:34:45;5.85;;;1.85;;
51664;SDS011;37751;52.408;12.536;2022-07-29T12:37:12;7.47;;;2.03;;
51664;SDS011;37751;52.408;12.536;2022-07-29T12:39:39;4.28;;;1.90;;
51664;SDS011;37751;52.408;12.536;2022-07-29T12:42:13;8.60;;;1.92;;
51664;SDS011;37751;52.408;12.536;2022-07-29T12:44:47;7.47;;;2.45;;
51664;SDS011;37751;52.408;12.536;2022-07-29T12:47:16;6.50;;;2.72;;
51664;SDS011;37751;52.408;12.536;2022-07-29T12:49:46;9.38;;;2.00;;
51664;SDS011;37751;52.408;12.536;2022-07-29T12:52:30;7.13;;;2.03;;
51664;SDS011;37751;52.408;12.536;2022-07-29T12:55:00;4.50;;;2.63;;
51664;SDS011;37751;52.408;12.536;2022-07-29T12:57:28;8.55;;;3.47;;
51664;SDS011;37751;52.408;12.536;2022-07-29T13:02:37;9.02;;;2.03;;
51664;SDS011;37751;52.408;12.536;2022-07-29T13:05:07;5.47;;;2.35;;
51664;SDS011;37751;52.408;12.536;2022-07-29T13:07:35;4.30;;;1.80;;
51664;SDS011;37751;52.408;12.536;2022-07-29T13:10:22;4.07;;;1.65;;
51664;SDS011;37751;52.408;12.536;2022-07-29T13:13:05;5.90;;;2.03;;
51664;SDS011;37751;52.408;12.536;2022-07-29T13:15:39;7.28;;;2.13;;
51664;SDS011;37751;52.408;12.536;2022-07-29T13:20:56;10.20;;;2.00;;
51664;SDS011;37751;52.408;12.536;2022-07-29T13:23:35;8.60;;;2.50;;
51664;SDS011;37751;52.408;12.536;2022-07-29T13:26:07;8.95;;;2.72;;
51664;SDS011;37751;52.408;12.536;2022-07-29T13:28:37;6.43;;;2.28;;
51664;SDS011;37751;52.408;12.536;2022-07-29T13:31:04;9.32;;;2.85;;
51664;SDS011;37751;52.408;12.536;2022-07-29T13:33:31;5.82;;;2.22;;
51664;SDS011;37751;52.408;12.536;2022-07-29T13:35:58;12.52;;;2.75;;
51664;SDS011;37751;52.408;12.536;2022-07-29T13:38:24;9.13;;;2.63;;
51664;SDS011;37751;52.408;12.536;2022-07-29T13:40:56;2.28;;;2.08;;
51664;SDS011;37751;52.408;12.536;2022-07-29T13:43:23;7.40;;;2.15;;
51664;SDS011;37751;52.408;12.536;2022-07-29T13:45:50;7.50;;;2.78;;
51664;SDS011;37751;52.408;12.536;2022-07-29T13:48:18;3.60;;;2.60;;
51664;SDS011;37751;52.408;12.536;2022-07-29T13:50:44;5.63;;;2.50;;
51664;SDS011;37751;52.408;12.536;2022-07-29T13:53:12;5.75;;;2.95;;
51664;SDS011;37751;52.408;12.536;2022-07-29T13:55:43;4.85;;;2.75;;
51664;SDS011;37751;52.408;12.536;2022-07-29T13:58:10;9.18;;;2.55;;
51664;SDS011;37751;52.408;12.536;2022-07-29T14:00:37;8.00;;;2.70;;
51664;SDS011;37751;52.408;12.536;2022-07-29T14:03:03;7.88;;;2.53;;
51664;SDS011;37751;52.408;12.536;2022-07-29T14:05:30;5.15;;;2.72;;
51664;SDS011;37751;52.408;12.536;2022-07-29T14:07:57;5.38;;;2.55;;
51664;SDS011;37751;52.408;12.536;2022-07-29T14:10:24;6.55;;;2.60;;
51664;SDS011;37751;52.408;12.536;2022-07-29T14:12:52;7.72;;;2.28;;
51664;SDS011;37751;52.408;12.536;2022-07-29T14:15:18;6.93;;;2.45;;
51664;SDS011;37751;52.408;12.536;2022-07-29T14:17:46;14.45;;;2.53;;
51664;SDS011;37751;52.408;12.536;2022-07-29T14:22:37;5.43;;;2.60;;
51664;SDS011;37751;52.408;12.536;2022-07-29T14:25:08;4.75;;;2.50;;
51664;SDS011;37751;52.408;12.536;2022-07-29T14:27:41;8.93;;;2.20;;
51664;SDS011;37751;52.408;12.536;2022-07-29T14:30:09;7.45;;;2.63;;
51664;SDS011;37751;52.408;12.536;2022-07-29T14:32:37;6.10;;;2.42;;
51664;SDS011;37751;52.408;12.536;2022-07-29T14:35:04;7.85;;;2.22;;
51664;SDS011;37751;52.408;12.536;2022-07-29T14:37:32;5.43;;;2.80;;
51664;SDS011;37751;52.408;12.536;2022-07-29T14:40:05;5.63;;;2.50;;
51664;SDS011;37751;52.408;12.536;2022-07-29T14:42:34;5.30;;;2.97;;
51664;SDS011;37751;52.408;12.536;2022-07-29T14:45:00;7.00;;;2.47;;
51664;SDS011;37751;52.408;12.536;2022-07-29T14:47:27;5.07;;;2.28;;
51664;SDS011;37751;52.408;12.536;2022-07-29T14:49:54;7.30;;;2.10;;
51664;SDS011;37751;52.408;12.536;2022-07-29T14:52:21;4.90;;;2.50;;
51664;SDS011;37751;52.408;12.536;2022-07-29T14:54:48;7.28;;;2.80;;
51664;SDS011;37751;52.408;12.536;2022-07-29T14:57:15;8.32;;;3.50;;
51664;SDS011;37751;52.408;12.536;2022-07-29T14:59:42;7.15;;;3.53;;
51664;SDS011;37751;52.408;12.536;2022-07-29T15:02:09;10.70;;;2.60;;
51664;SDS011;37751;52.408;12.536;2022-07-29T15:04:36;9.55;;;3.10;;
51664;SDS011;37751;52.408;12.536;2022-07-29T15:07:03;5.72;;;2.40;;
51664;SDS011;37751;52.408;12.536;2022-07-29T15:09:29;10.25;;;2.78;;
51664;SDS011;37751;52.408;12.536;2022-07-29T15:11:56;6.43;;;2.70;;
51664;SDS011;37751;52.408;12.536;2022-07-29T15:14:24;3.35;;;2.70;;
51664;SDS011;37751;52.408;12.536;2022-07-29T15:16:50;3.17;;;2.28;;
51664;SDS011;37751;52.408;12.536;2022-07-29T15:19:18;4.53;;;2.95;;
51664;SDS011;37751;52.408;12.536;2022-07-29T15:21:45;6.35;;;2.83;;
51664;SDS011;37751;52.408;12.536;2022-07-29T15:24:14;6.28;;;3.05;;
51664;SDS011;37751;52.408;12.536;2022-07-29T15:26:45;4.05;;;2.53;;
51664;SDS011;37751;52.408;12.536;2022-07-29T15:29:13;5.45;;;2.90;;
51664;SDS011;37751;52.408;12.536;2022-07-29T15:31:41;12.50;;;2.90;;
51664;SDS011;37751;52.408;12.536;2022-07-29T15:34:09;6.47;;;3.15;;
51664;SDS011;37751;52.408;12.536;2022-07-29T15:36:35;4.07;;;2.88;;
51664;SDS011;37751;52.408;12.536;2022-07-29T15:39:19;6.15;;;2.55;;
51664;SDS011;37751;52.408;12.536;2022-07-29T15:41:47;5.90;;;2.53;;
51664;SDS011;37751;52.408;12.536;2022-07-29T15:44:15;4.22;;;2.05;;
51664;SDS011;37751;52.408;12.536;2022-07-29T15:46:42;6.95;;;2.55;;
51664;SDS011;37751;52.408;12.536;2022-07-29T15:49:44;11.18;;;3.42;;
51664;SDS011;37751;52.408;12.536;2022-07-29T15:52:15;8.20;;;3.00;;
51664;SDS011;37751;52.408;12.536;2022-07-29T15:54:51;11.95;;;2.88;;
51664;SDS011;37751;52.408;12.536;2022-07-29T15:57:20;9.10;;;2.72;;
51664;SDS011;37751;52.408;12.536;2022-07-29T15:59:47;6.32;;;2.58;;
51664;SDS011;37751;52.408;12.536;2022-07-29T16:02:13;9.07;;;2.45;;